createdAt,value
2023-04-15T00:01:10.175Z,96.00
2023-04-15T00:03:36.939Z,96.39
2023-04-15T00:06:03.879Z,96.61
2023-04-15T00:08:35.353Z,96.91
2023-04-15T00:11:06.796Z,96.82
2023-04-15T00:13:36.053Z,96.79
2023-04-15T00:16:02.696Z,95.76
2023-04-15T00:18:35.004Z,95.84
2023-04-15T00:21:04.570Z,95.85
2023-04-15T00:23:31.796Z,95.41
2023-04-15T00:25:58.358Z,95.19
2023-04-15T00:28:25.028Z,95.52
2023-04-15T00:30:56.593Z,95.31
2023-04-15T00:33:23.160Z,95.67
2023-04-15T00:35:53.685Z,95.33
2023-04-15T00:38:23.237Z,94.26
2023-04-15T00:40:50.206Z,93.65
2023-04-15T00:43:19.024Z,94.14
2023-04-15T00:45:48.058Z,93.76
2023-04-15T00:48:15.588Z,93.85
2023-04-15T00:50:42.134Z,93.71
2023-04-15T00:53:10.881Z,93.61
2023-04-15T00:55:40.092Z,93.42
2023-04-15T00:58:08.928Z,93.99
2023-04-15T01:00:36.005Z,94.18
2023-04-15T01:03:04.992Z,93.78
2023-04-15T01:05:37.051Z,93.48
2023-04-15T01:08:05.742Z,93.90
2023-04-15T01:10:34.622Z,94.02
2023-04-15T01:13:01.149Z,93.29
2023-04-15T01:15:29.755Z,94.13
2023-04-15T01:17:58.587Z,94.77
2023-04-15T01:20:25.258Z,94.25
2023-04-15T01:22:55.089Z,94.08
2023-04-15T01:25:34.816Z,94.11
2023-04-15T01:28:04.922Z,94.14
2023-04-15T01:30:35.048Z,94.48
2023-04-15T01:33:01.870Z,94.33
2023-04-15T01:35:31.028Z,94.52
2023-04-15T01:38:11.442Z,95.22
2023-04-15T01:40:40.966Z,95.25
2023-04-15T01:43:09.790Z,95.56
2023-04-15T01:45:36.367Z,95.33
2023-04-15T01:48:05.234Z,94.84
2023-04-15T01:50:32.212Z,94.16
2023-04-15T01:53:01.192Z,94.79
2023-04-15T01:55:30.457Z,93.95
2023-04-15T01:57:57.423Z,93.23
2023-04-15T02:00:26.676Z,92.84
2023-04-15T02:02:53.262Z,93.71
2023-04-15T02:05:22.336Z,93.58
2023-04-15T02:07:52.378Z,93.21
2023-04-15T02:10:18.979Z,93.35
2023-04-15T02:12:45.859Z,93.02
2023-04-15T02:15:12.409Z,92.88
2023-04-15T02:17:41.755Z,92.40
2023-04-15T02:20:09.104Z,92.99
2023-04-15T02:22:35.778Z,92.72
2023-04-15T02:25:02.487Z,93.09
2023-04-15T02:27:29.082Z,93.21
2023-04-15T02:30:00.579Z,93.09
2023-04-15T02:32:27.194Z,92.84
2023-04-15T02:34:58.295Z,92.62
2023-04-15T02:37:27.240Z,91.91
2023-04-15T02:39:53.759Z,93.05
2023-04-15T02:42:21.690Z,93.23
2023-04-15T02:44:48.365Z,93.11
2023-04-15T02:47:16.044Z,92.84
2023-04-15T02:49:42.640Z,92.57
2023-04-15T02:52:10.041Z,92.54
2023-04-15T02:54:39.093Z,92.44
2023-04-15T02:57:06.890Z,92.37
2023-04-15T02:59:35.871Z,93.69
2023-04-15T03:02:02.705Z,94.04
2023-04-15T03:04:34.121Z,94.07
2023-04-15T03:07:01.918Z,93.67
2023-04-15T03:09:28.522Z,93.63
2023-04-15T03:11:59.866Z,93.53
2023-04-15T03:14:28.787Z,93.26
2023-04-15T03:17:00.050Z,92.47
2023-04-15T03:19:26.625Z,92.44
2023-04-15T03:21:55.432Z,92.04
2023-04-15T03:24:22.059Z,91.95
2023-04-15T03:26:51.499Z,92.83
2023-04-15T03:29:23.312Z,92.83
2023-04-15T03:31:50.037Z,92.76
2023-04-15T03:34:18.843Z,92.35
2023-04-15T03:36:46.853Z,92.63
2023-04-15T03:39:13.643Z,93.14
2023-04-15T03:41:40.542Z,92.85
2023-04-15T03:44:11.951Z,93.05
2023-04-15T03:46:38.613Z,93.18
2023-04-15T03:49:07.718Z,92.46
2023-04-15T03:51:34.302Z,93.08
2023-04-15T03:54:03.296Z,93.21
2023-04-15T03:56:32.095Z,93.16
2023-04-15T03:59:01.457Z,93.50
2023-04-15T04:01:28.253Z,93.17
2023-04-15T04:03:55.046Z,93.12
2023-04-15T04:06:21.821Z,92.85
2023-04-15T04:08:48.352Z,93.59
2023-04-15T04:11:14.913Z,93.68
2023-04-15T04:13:41.522Z,93.43
2023-04-15T04:16:10.978Z,93.04
2023-04-15T04:18:37.604Z,92.14
2023-04-15T04:21:04.230Z,92.42
2023-04-15T04:23:33.272Z,92.11
2023-04-15T04:25:59.896Z,92.61
2023-04-15T04:28:30.776Z,93.39
2023-04-15T04:30:59.654Z,93.44
2023-04-15T04:33:28.682Z,93.75
2023-04-15T04:35:55.243Z,94.34
2023-04-15T04:38:24.139Z,95.19
2023-04-15T04:40:50.750Z,94.45
2023-04-15T04:43:17.447Z,93.71
2023-04-15T04:45:49.340Z,92.83
2023-04-15T04:48:18.936Z,92.51
2023-04-15T04:50:48.165Z,92.38
2023-04-15T04:53:14.990Z,92.51
2023-04-15T04:55:41.546Z,92.66
2023-04-15T04:58:10.697Z,92.11
2023-04-15T05:00:38.515Z,92.09
2023-04-15T05:03:05.225Z,92.17
2023-04-15T05:05:35.543Z,92.70
2023-04-15T05:08:02.242Z,92.61
2023-04-15T05:10:31.817Z,91.61
2023-04-15T05:13:00.980Z,91.93
2023-04-15T05:15:27.544Z,91.65
2023-04-15T05:17:56.422Z,91.04
2023-04-15T05:20:27.612Z,90.60
2023-04-15T05:22:54.189Z,92.14
2023-04-15T05:25:21.254Z,92.98
2023-04-15T05:27:51.439Z,93.42
2023-04-15T05:30:18.068Z,92.46
2023-04-15T05:32:44.582Z,91.39
2023-04-15T05:35:11.128Z,91.62
2023-04-15T05:37:37.698Z,92.63
2023-04-15T05:40:06.593Z,93.14
2023-04-15T05:42:38.198Z,93.47
2023-04-15T05:45:09.357Z,94.13
2023-04-15T05:47:40.570Z,93.17
2023-04-15T05:50:07.428Z,93.08
2023-04-15T05:52:34.029Z,90.88
2023-04-15T05:55:05.500Z,91.28
2023-04-15T05:57:32.120Z,90.76
2023-04-15T06:00:01.793Z,90.81
2023-04-15T06:02:31.612Z,91.04
2023-04-15T06:05:01.069Z,91.83
2023-04-15T06:07:27.842Z,91.78
2023-04-15T06:09:58.951Z,91.19
2023-04-15T06:12:25.497Z,91.70
2023-04-15T06:14:52.086Z,91.03
2023-04-15T06:17:19.342Z,90.85
2023-04-15T06:19:50.379Z,91.53
2023-04-15T06:22:22.269Z,90.36
2023-04-15T06:24:51.564Z,88.07
2023-04-15T06:27:18.143Z,87.75
2023-04-15T06:29:47.701Z,89.01
2023-04-15T06:32:14.293Z,88.29
2023-04-15T06:34:43.051Z,87.74
2023-04-15T06:37:16.262Z,87.44
2023-04-15T06:39:43.638Z,89.13
2023-04-15T06:42:15.211Z,90.92
2023-04-15T06:44:44.484Z,89.72
2023-04-15T06:47:14.728Z,89.14
2023-04-15T06:49:41.537Z,87.39
2023-04-15T06:52:08.234Z,86.02
2023-04-15T06:54:36.988Z,86.85
2023-04-15T06:57:03.704Z,85.71
2023-04-15T06:59:35.456Z,83.39
2023-04-15T07:02:03.761Z,82.10
2023-04-15T07:04:32.983Z,83.12
2023-04-15T07:07:04.433Z,84.64
2023-04-15T07:09:31.314Z,84.54
2023-04-15T07:11:57.977Z,82.28
2023-04-15T07:14:27.877Z,83.06
2023-04-15T07:16:54.581Z,82.81
2023-04-15T07:19:21.853Z,83.10
2023-04-15T07:21:50.636Z,81.39
2023-04-15T07:24:19.019Z,81.77
2023-04-15T07:26:46.049Z,81.33
2023-04-15T07:29:12.602Z,79.46
2023-04-15T07:31:46.524Z,80.04
2023-04-15T07:34:17.937Z,81.91
2023-04-15T07:36:44.514Z,80.44
2023-04-15T07:39:21.810Z,78.11
2023-04-15T07:41:49.335Z,77.30
2023-04-15T07:44:16.762Z,78.31
2023-04-15T07:46:43.392Z,75.60
2023-04-15T07:49:13.444Z,77.86
2023-04-15T07:51:40.061Z,75.74
2023-04-15T07:54:06.576Z,74.59
2023-04-15T07:56:33.145Z,77.24
2023-04-15T07:59:02.364Z,77.46
2023-04-15T08:01:29.288Z,77.38
2023-04-15T08:03:59.594Z,77.40
2023-04-15T08:06:26.230Z,76.26
2023-04-15T08:08:57.847Z,74.90
2023-04-15T08:11:24.931Z,73.23
2023-04-15T08:13:52.529Z,73.67
2023-04-15T08:16:24.665Z,72.36
2023-04-15T08:18:53.225Z,74.01
2023-04-15T08:21:22.882Z,73.15
2023-04-15T08:23:53.443Z,73.13
2023-04-15T08:26:21.329Z,73.14
2023-04-15T08:28:51.690Z,72.90
2023-04-15T08:31:21.973Z,72.12
2023-04-15T08:33:52.539Z,71.43
2023-04-15T08:36:21.561Z,70.76
2023-04-15T08:38:48.164Z,71.47
2023-04-15T08:41:23.657Z,74.28
2023-04-15T08:43:59.211Z,73.68
2023-04-15T08:46:29.255Z,72.92
2023-04-15T08:48:59.267Z,72.14
2023-04-15T08:51:31.133Z,69.95
2023-04-15T08:53:57.826Z,69.76
2023-04-15T08:56:33.013Z,68.98
2023-04-15T08:59:02.915Z,69.65
2023-04-15T09:01:30.053Z,69.44
2023-04-15T09:03:57.243Z,71.83
2023-04-15T09:06:25.084Z,71.30
2023-04-15T09:08:54.803Z,71.79
2023-04-15T09:11:22.391Z,70.46
2023-04-15T09:13:52.308Z,69.90
2023-04-15T09:16:19.020Z,68.01
2023-04-15T09:18:45.722Z,70.18
2023-04-15T09:21:17.679Z,70.27
2023-04-15T09:24:02.508Z,69.14
2023-04-15T09:26:40.238Z,72.91
2023-04-15T09:29:13.511Z,74.69
2023-04-15T09:31:41.144Z,77.11
2023-04-15T09:34:10.339Z,78.55
2023-04-15T09:36:56.986Z,77.71
2023-04-15T09:39:23.577Z,80.03
2023-04-15T09:42:09.095Z,79.36
2023-04-15T09:44:35.885Z,76.48
2023-04-15T09:47:02.500Z,76.51
2023-04-15T09:49:29.272Z,75.06
2023-04-15T09:52:06.056Z,74.29
2023-04-15T09:54:36.789Z,74.14
2023-04-15T09:57:15.826Z,75.43
2023-04-15T09:59:42.389Z,73.83
2023-04-15T10:02:12.881Z,71.95
2023-04-15T10:04:41.654Z,73.13
2023-04-15T10:07:12.779Z,74.60
2023-04-15T10:09:40.203Z,71.54
2023-04-15T10:12:09.211Z,71.04
2023-04-15T10:14:41.530Z,73.04
2023-04-15T10:17:11.751Z,74.02
2023-04-15T10:19:38.639Z,74.21
2023-04-15T10:22:08.153Z,76.46
2023-04-15T10:24:38.970Z,74.31
2023-04-15T10:27:06.444Z,70.98
2023-04-15T10:29:33.802Z,74.33
2023-04-15T10:32:01.759Z,73.83
2023-04-15T10:34:29.995Z,70.64
2023-04-15T10:36:58.379Z,72.21
2023-04-15T10:39:48.632Z,69.83
2023-04-15T10:42:20.539Z,69.42
2023-04-15T10:44:54.213Z,74.49
2023-04-15T10:47:22.053Z,77.70
2023-04-15T10:49:51.640Z,78.18
2023-04-15T10:52:23.621Z,76.92
2023-04-15T10:55:04.068Z,78.27
2023-04-15T10:57:45.570Z,79.19
2023-04-15T11:00:15.527Z,78.13
2023-04-15T11:02:48.149Z,75.60
2023-04-15T11:05:19.496Z,73.99
2023-04-15T11:08:01.212Z,75.48
2023-04-15T11:10:31.186Z,77.69
2023-04-15T11:13:13.727Z,76.75
2023-04-15T11:15:48.544Z,77.01
2023-04-15T11:18:15.044Z,77.70
2023-04-15T11:21:04.755Z,77.82
2023-04-15T11:23:47.945Z,76.52
2023-04-15T11:26:15.497Z,75.37
2023-04-15T11:28:46.093Z,76.45
2023-04-15T11:31:14.613Z,75.67
2023-04-15T11:34:04.965Z,74.94
2023-04-15T11:36:34.505Z,76.84
2023-04-15T11:39:07.395Z,73.51
2023-04-15T11:41:38.218Z,75.22
2023-04-15T11:44:18.859Z,74.15
2023-04-15T11:46:47.734Z,74.09
2023-04-15T11:49:27.641Z,72.32
2023-04-15T11:51:54.257Z,72.06
2023-04-15T11:54:26.119Z,72.80
2023-04-15T11:56:53.687Z,73.49
2023-04-15T11:59:20.493Z,72.48
2023-04-15T12:01:49.978Z,72.67
2023-04-15T12:04:23.222Z,72.04
2023-04-15T12:06:51.846Z,72.16
2023-04-15T12:09:20.949Z,71.11
2023-04-15T12:11:48.828Z,71.80
2023-04-15T12:14:25.753Z,67.68
2023-04-15T12:16:58.210Z,68.53
2023-04-15T12:19:30.652Z,68.85
2023-04-15T12:22:02.552Z,70.65
2023-04-15T12:24:35.617Z,68.85
2023-04-15T12:27:06.954Z,67.81
2023-04-15T12:29:38.736Z,68.07
2023-04-15T12:32:10.426Z,66.00
2023-04-15T12:34:41.904Z,68.35
2023-04-15T12:37:10.731Z,69.74
2023-04-15T12:39:45.308Z,67.48
2023-04-15T12:42:14.949Z,69.23
2023-04-15T12:44:44.204Z,68.41
2023-04-15T12:47:15.814Z,69.90
2023-04-15T12:49:42.406Z,70.19
2023-04-15T12:52:13.677Z,66.75
2023-04-15T12:54:40.846Z,67.52
2023-04-15T12:57:10.817Z,67.87
2023-04-15T13:02:24.607Z,68.66
2023-04-15T13:04:58.467Z,69.48
2023-04-15T13:07:49.906Z,70.24
2023-04-15T13:10:36.704Z,69.20
2023-04-15T13:13:03.584Z,66.62
2023-04-15T13:18:45.582Z,68.78
2023-04-15T13:24:44.760Z,68.56
2023-04-15T13:27:11.669Z,67.88
2023-04-15T13:29:38.759Z,68.82
2023-04-15T13:32:06.036Z,68.33
2023-04-15T13:34:32.642Z,68.78
2023-04-15T13:37:06.080Z,67.88
2023-04-15T13:39:32.593Z,67.37
2023-04-15T13:41:59.337Z,67.98
2023-04-15T13:44:25.938Z,67.90
2023-04-15T13:46:52.899Z,67.44
2023-04-15T13:49:19.539Z,67.33
2023-04-15T13:51:50.856Z,67.11
2023-04-15T13:54:17.501Z,69.09
2023-04-15T13:56:46.445Z,68.58
2023-04-15T13:59:13.183Z,68.44
2023-04-15T14:01:42.020Z,68.73
2023-04-15T14:04:11.125Z,69.52
2023-04-15T14:06:40.531Z,68.23
2023-04-15T14:09:07.238Z,67.54
2023-04-15T14:11:36.704Z,67.51
2023-04-15T14:14:03.513Z,66.30
2023-04-15T14:16:30.275Z,66.16
2023-04-15T14:18:58.086Z,67.71
2023-04-15T14:21:24.765Z,66.45
2023-04-15T14:23:53.655Z,67.05
2023-04-15T14:26:20.392Z,67.04
2023-04-15T14:28:48.454Z,65.67
2023-04-15T14:31:17.700Z,66.60
2023-04-15T14:33:44.314Z,67.55
2023-04-15T14:36:13.399Z,65.42
2023-04-15T14:38:40.199Z,65.97
2023-04-15T14:41:08.147Z,65.75
2023-04-15T14:43:37.316Z,68.17
2023-04-15T14:46:04.094Z,69.05
2023-04-15T14:48:31.881Z,70.75
2023-04-15T14:50:59.224Z,70.57
2023-04-15T14:53:25.982Z,70.57
2023-04-15T14:55:52.594Z,71.82
2023-04-15T14:58:19.170Z,71.90
2023-04-15T15:00:46.094Z,70.12
2023-04-15T15:03:15.799Z,70.66
2023-04-15T15:05:44.821Z,70.99
2023-04-15T15:08:12.170Z,71.35
2023-04-15T15:10:49.504Z,69.54
2023-04-15T15:13:17.452Z,69.78
2023-04-15T15:15:46.422Z,68.18
2023-04-15T15:18:13.146Z,68.25
2023-04-15T15:20:39.879Z,69.25
2023-04-15T15:23:06.510Z,69.19
2023-04-15T15:25:33.088Z,70.66
2023-04-15T15:28:01.880Z,70.93
2023-04-15T15:30:39.868Z,70.83
2023-04-15T15:33:55.949Z,69.87
2023-04-15T15:36:24.997Z,70.97
2023-04-15T15:38:54.292Z,70.37
2023-04-15T15:41:21.266Z,70.57
2023-04-15T15:43:58.767Z,72.06
2023-04-15T15:46:31.752Z,71.58
2023-04-15T15:49:19.704Z,72.66
2023-04-15T15:51:46.907Z,74.04
2023-04-15T15:54:13.995Z,75.80
2023-04-15T15:56:45.263Z,78.15
2023-04-15T15:59:11.804Z,78.74
2023-04-15T16:01:44.519Z,79.65
2023-04-15T16:04:22.504Z,81.75
2023-04-15T16:09:31.790Z,85.63
2023-04-15T16:12:02.849Z,85.86
2023-04-15T16:14:29.860Z,85.44
2023-04-15T16:17:02.517Z,85.35
2023-04-15T16:19:55.605Z,85.43
2023-04-15T16:22:30.545Z,85.30
2023-04-15T16:24:57.117Z,84.49
2023-04-15T16:27:23.718Z,84.80
2023-04-15T16:29:52.552Z,84.33
2023-04-15T16:32:19.505Z,84.91
2023-04-15T16:34:48.417Z,84.88
2023-04-15T16:37:17.193Z,86.06
2023-04-15T16:39:46.106Z,85.12
2023-04-15T16:42:12.711Z,85.37
2023-04-15T16:44:39.275Z,84.72
2023-04-15T16:47:05.946Z,85.59
2023-04-15T16:49:35.596Z,84.80
2023-04-15T16:52:04.716Z,84.60
2023-04-15T16:54:32.726Z,85.22
2023-04-15T16:56:59.311Z,85.76
2023-04-15T16:59:30.717Z,85.36
2023-04-15T17:01:57.468Z,85.95
2023-04-15T17:04:27.405Z,85.62
2023-04-15T17:06:56.436Z,85.48
2023-04-15T17:09:22.998Z,84.53
2023-04-15T17:11:54.579Z,84.93
2023-04-15T17:14:23.667Z,85.23
2023-04-15T17:16:52.498Z,85.86
2023-04-15T17:19:23.588Z,86.06
2023-04-15T17:21:54.264Z,84.81
2023-04-15T17:24:21.496Z,84.35
2023-04-15T17:26:48.037Z,82.86
2023-04-15T17:29:14.645Z,83.86
2023-04-15T17:31:43.537Z,84.64
2023-04-15T17:34:11.643Z,84.52
2023-04-15T17:36:39.166Z,85.12
2023-04-15T17:39:06.203Z,84.52
2023-04-15T17:41:35.403Z,84.76
2023-04-15T17:44:04.532Z,84.43
2023-04-15T17:46:32.010Z,84.29
2023-04-15T17:48:58.583Z,84.34
2023-04-15T17:51:28.431Z,85.39
2023-04-15T17:53:55.114Z,84.43
2023-04-15T17:56:22.399Z,84.81
2023-04-15T17:58:48.962Z,85.14
2023-04-15T18:01:15.507Z,85.06
2023-04-15T18:03:47.229Z,83.55
2023-04-15T18:06:16.905Z,84.71
2023-04-15T18:08:45.942Z,83.73
2023-04-15T18:11:16.066Z,83.37
2023-04-15T18:13:43.707Z,82.84
2023-04-15T18:16:13.268Z,82.53
2023-04-15T18:18:44.321Z,82.47
2023-04-15T18:21:13.430Z,81.43
2023-04-15T18:23:40.396Z,82.62
2023-04-15T18:26:23.978Z,83.66
2023-04-15T18:28:54.878Z,84.12
2023-04-15T18:31:37.496Z,83.53
2023-04-15T18:34:06.646Z,83.40
2023-04-15T18:36:33.495Z,83.52
2023-04-15T18:39:00.107Z,82.07
2023-04-15T18:41:29.763Z,81.49
2023-04-15T18:44:43.600Z,81.55
2023-04-15T18:47:01.469Z,83.04
2023-04-15T18:49:35.263Z,82.44
2023-04-15T18:52:10.929Z,83.51
2023-04-15T18:54:40.858Z,83.73
2023-04-15T18:57:10.674Z,82.27
2023-04-15T18:59:47.982Z,81.97
2023-04-15T19:02:14.577Z,81.01
2023-04-15T19:04:49.936Z,81.77
2023-04-15T19:07:16.641Z,81.87
2023-04-15T19:09:45.735Z,81.63
2023-04-15T19:12:19.521Z,82.62
2023-04-15T19:14:48.591Z,82.85
2023-04-15T19:17:17.561Z,83.65
2023-04-15T19:19:54.911Z,83.05
2023-04-15T19:22:29.517Z,82.46
2023-04-15T19:25:03.430Z,82.19
2023-04-15T19:27:59.987Z,81.43
2023-04-15T19:30:36.923Z,82.15
2023-04-15T19:33:31.245Z,82.43
2023-04-15T19:36:02.286Z,82.00
2023-04-15T19:38:29.126Z,82.24
2023-04-15T19:40:58.074Z,82.80
2023-04-15T19:43:27.726Z,82.21
2023-04-15T19:45:58.988Z,82.40
2023-04-15T19:48:28.130Z,82.26
2023-04-15T19:50:57.186Z,81.69
2023-04-15T19:53:25.651Z,83.36
2023-04-15T19:55:57.241Z,84.20
2023-04-15T19:58:26.136Z,84.58
2023-04-15T20:00:52.681Z,83.82
2023-04-15T20:03:19.692Z,84.20
2023-04-15T20:05:46.695Z,82.99
2023-04-15T20:08:13.306Z,82.43
2023-04-15T20:10:39.848Z,80.73
2023-04-15T20:13:06.585Z,81.15
2023-04-15T20:15:33.218Z,80.70
2023-04-15T20:17:59.822Z,79.35
2023-04-15T20:20:26.688Z,80.39
2023-04-15T20:22:53.284Z,81.24
2023-04-15T20:25:19.914Z,82.47
2023-04-15T20:27:48.711Z,82.11
2023-04-15T20:30:15.641Z,82.86
2023-04-15T20:32:44.669Z,81.77
2023-04-15T20:35:11.340Z,81.86
2023-04-15T20:37:38.291Z,80.72
2023-04-15T20:40:05.362Z,81.58
2023-04-15T20:42:34.760Z,82.91
2023-04-15T20:45:03.921Z,81.77
2023-04-15T20:47:30.572Z,82.02
2023-04-15T20:49:57.245Z,80.74
2023-04-15T20:52:23.924Z,81.12
2023-04-15T20:54:51.257Z,81.52
2023-04-15T20:57:18.332Z,81.21
2023-04-15T20:59:44.912Z,81.13
2023-04-15T21:02:11.738Z,81.62
2023-04-15T21:04:38.860Z,80.47
2023-04-15T21:07:05.650Z,82.61
2023-04-15T21:09:34.476Z,83.93
2023-04-15T21:12:08.328Z,83.92
2023-04-15T21:14:42.295Z,85.31
2023-04-15T21:17:11.168Z,85.24
2023-04-15T21:19:38.275Z,84.21
2023-04-15T21:22:04.928Z,83.58
2023-04-15T21:24:31.517Z,83.01
2023-04-15T21:27:02.032Z,82.89
2023-04-15T21:29:28.921Z,82.85
2023-04-15T21:31:55.805Z,83.51
2023-04-15T21:34:22.433Z,82.27
2023-04-15T21:36:49.139Z,83.06
2023-04-15T21:39:16.077Z,84.65
2023-04-15T21:41:42.716Z,84.95
2023-04-15T21:44:09.312Z,83.88
2023-04-15T21:46:38.289Z,84.07
2023-04-15T21:49:07.053Z,83.90
2023-04-15T21:51:33.866Z,84.55
2023-04-15T21:54:00.479Z,84.40
2023-04-15T21:56:27.054Z,84.84
2023-04-15T21:58:56.933Z,85.31
2023-04-15T22:01:24.492Z,84.21
2023-04-15T22:03:51.514Z,83.67
2023-04-15T22:06:23.661Z,84.23
2023-04-15T22:08:57.095Z,86.44
2023-04-15T22:11:27.634Z,87.92
2023-04-15T22:13:58.552Z,87.03
2023-04-15T22:16:26.624Z,87.40
2023-04-15T22:18:58.247Z,86.40
2023-04-15T22:21:24.782Z,86.98
2023-04-15T22:23:51.739Z,86.18
2023-04-15T22:26:18.431Z,85.91
2023-04-15T22:28:45.311Z,84.74
2023-04-15T22:31:14.977Z,84.25
2023-04-15T22:33:41.626Z,86.05
2023-04-15T22:36:08.146Z,86.75
2023-04-15T22:38:37.000Z,87.14
2023-04-15T22:41:08.325Z,88.01
2023-04-15T22:43:34.926Z,86.44
2023-04-15T22:46:01.753Z,85.62
2023-04-15T22:48:30.669Z,84.95
2023-04-15T22:50:59.546Z,86.47
2023-04-15T22:53:26.413Z,87.63
2023-04-15T22:55:56.010Z,86.90
2023-04-15T22:58:22.677Z,86.14
2023-04-15T23:00:51.517Z,85.81
2023-04-15T23:03:20.352Z,86.32
2023-04-15T23:05:47.451Z,87.39
2023-04-15T23:08:14.084Z,86.93
2023-04-15T23:10:44.663Z,87.87
2023-04-15T23:13:11.258Z,88.26
2023-04-15T23:15:37.818Z,88.83
2023-04-15T23:18:04.390Z,88.26
2023-04-15T23:20:30.994Z,87.83
2023-04-15T23:22:57.599Z,88.69
2023-04-15T23:25:24.284Z,88.69
2023-04-15T23:27:50.867Z,89.57
2023-04-15T23:30:17.439Z,88.99
2023-04-15T23:32:44.047Z,89.05
2023-04-15T23:35:12.987Z,89.67
2023-04-15T23:37:39.523Z,89.07
2023-04-15T23:40:11.707Z,88.96
2023-04-15T23:42:38.251Z,88.28
2023-04-15T23:45:05.141Z,88.34
2023-04-15T23:47:31.765Z,88.55
2023-04-15T23:50:00.722Z,88.99
2023-04-15T23:52:27.693Z,88.41
2023-04-15T23:54:56.481Z,90.21
2023-04-15T23:57:23.080Z,90.82
2023-04-15T23:59:49.663Z,90.25
